WZZ88 EYVI-EHEH
Flight info
| Callsign | WZZ88 |
|---|---|
| Flight time | 1h 58m |
| Altitude | 36000 |
| Route | UPASI DCT TUNGA DCT SUWGI DCT ARDUT L29 ALUKA DCT PIROT T851 DENOL DCT DOMEG DCT ROTEK |
| Aircraft | A320/M-SDE1E2E3FGIJ1J4RWXY/LB1 |
Departure
| Time | 2026-05-04 11:41 |
|---|---|
| Airport | Vilnius International Airport (EYVI) |
Arrival
| Time | 2026-05-04 13:40 |
|---|---|
| Airport | Eindhoven Airport (EHEH) |
| Time | Latitude | Longitude | Altitude | Speed | Heading |
|---|---|---|---|---|---|
| 2026-05-04 11:19 | 54.64151 | 25.28572 | 629 ft | 0 kts | 176° |
| 2026-05-04 11:24 | 54.64150 | 25.28573 | 629 ft | 0 kts | 176° |
| 2026-05-04 11:33 | 54.64162 | 25.28571 | 630 ft | 2 kts | 176° |
| 2026-05-04 11:33 | 54.64177 | 25.28570 | 630 ft | 2 kts | 176° |
| 2026-05-04 11:34 | 54.64193 | 25.28568 | 631 ft | 2 kts | 176° |
| 2026-05-04 11:34 | 54.64203 | 25.28568 | 631 ft | 2 kts | 172° |
| 2026-05-04 11:34 | 54.64214 | 25.28552 | 631 ft | 2 kts | 105° |
| 2026-05-04 11:34 | 54.64214 | 25.28536 | 630 ft | 1 kts | 84° |
| 2026-05-04 11:35 | 54.64214 | 25.28531 | 630 ft | 0 kts | 87° |
| 2026-05-04 11:37 | 54.64215 | 25.28545 | 630 ft | 0 kts | 87° |
| 2026-05-04 11:37 | 54.64215 | 25.28556 | 631 ft | 0 kts | 87° |
| 2026-05-04 11:38 | 54.64215 | 25.28565 | 631 ft | 0 kts | 87° |
| 2026-05-04 11:38 | 54.64217 | 25.28601 | 632 ft | 4 kts | 78° |
| 2026-05-04 11:38 | 54.64234 | 25.28632 | 633 ft | 3 kts | 18° |
| 2026-05-04 11:38 | 54.64280 | 25.28632 | 633 ft | 9 kts | 351° |
| 2026-05-04 11:39 | 54.64323 | 25.28693 | 635 ft | 8 kts | 64° |
| 2026-05-04 11:39 | 54.64328 | 25.28795 | 635 ft | 9 kts | 91° |
| 2026-05-04 11:40 | 54.63200 | 25.28427 | 594 ft | 146 kts | 201° |
| 2026-05-04 11:41 | 54.62165 | 25.27712 | 1052 ft | 157 kts | 204° |
| 2026-05-04 11:41 | 54.61138 | 25.27008 | 1668 ft | 160 kts | 204° |
| 2026-05-04 11:41 | 54.60071 | 25.26278 | 2350 ft | 162 kts | 204° |
| 2026-05-04 11:41 | 54.59015 | 25.25546 | 3024 ft | 163 kts | 202° |
| 2026-05-04 11:42 | 54.57942 | 25.24817 | 3678 ft | 165 kts | 204° |
| 2026-05-04 11:42 | 54.56807 | 25.24045 | 4229 ft | 175 kts | 203° |
| 2026-05-04 11:42 | 54.55613 | 25.23215 | 4679 ft | 192 kts | 201° |
| 2026-05-04 11:42 | 54.54287 | 25.22319 | 5131 ft | 209 kts | 203° |
| 2026-05-04 11:43 | 54.52821 | 25.21323 | 5478 ft | 234 kts | 204° |
| 2026-05-04 11:43 | 54.51389 | 25.19787 | 6083 ft | 246 kts | 227° |
| 2026-05-04 11:43 | 54.50521 | 25.17233 | 6947 ft | 249 kts | 253° |
| 2026-05-04 11:43 | 54.50411 | 25.14122 | 7531 ft | 268 kts | 278° |
| 2026-05-04 11:44 | 54.50883 | 25.10840 | 8141 ft | 283 kts | 283° |
| 2026-05-04 11:44 | 54.51433 | 25.07534 | 8954 ft | 288 kts | 284° |
| 2026-05-04 11:44 | 54.51991 | 25.04125 | 9809 ft | 291 kts | 283° |
| 2026-05-04 11:44 | 54.52540 | 25.00673 | 10649 ft | 294 kts | 283° |
| 2026-05-04 11:45 | 54.52974 | 24.97129 | 11281 ft | 303 kts | 273° |
| 2026-05-04 11:45 | 54.52887 | 24.93399 | 11656 ft | 319 kts | 258° |
| 2026-05-04 11:45 | 54.52237 | 24.89606 | 12023 ft | 335 kts | 249° |
| 2026-05-04 11:45 | 54.51372 | 24.85656 | 12366 ft | 353 kts | 248° |
| 2026-05-04 11:46 | 54.50474 | 24.81645 | 12873 ft | 363 kts | 248° |
| 2026-05-04 11:46 | 54.49552 | 24.77478 | 13644 ft | 366 kts | 248° |
| 2026-05-04 11:46 | 54.48637 | 24.73296 | 14408 ft | 369 kts | 249° |
| 2026-05-04 11:46 | 54.47733 | 24.69138 | 15122 ft | 372 kts | 249° |
| 2026-05-04 11:47 | 54.46823 | 24.64948 | 15826 ft | 375 kts | 249° |
| 2026-05-04 11:47 | 54.45895 | 24.60675 | 16525 ft | 378 kts | 249° |
| 2026-05-04 11:47 | 54.44956 | 24.56361 | 17205 ft | 381 kts | 249° |
| 2026-05-04 11:47 | 54.44015 | 24.52044 | 17859 ft | 384 kts | 249° |
| 2026-05-04 11:48 | 54.43077 | 24.47745 | 18486 ft | 387 kts | 249° |
| 2026-05-04 11:48 | 54.42108 | 24.43320 | 19108 ft | 390 kts | 250° |
| 2026-05-04 11:48 | 54.41141 | 24.38919 | 19704 ft | 393 kts | 250° |
| 2026-05-04 11:48 | 54.40160 | 24.34462 | 20287 ft | 396 kts | 249° |
| 2026-05-04 11:49 | 54.39178 | 24.30000 | 20854 ft | 399 kts | 250° |
| 2026-05-04 11:49 | 54.38275 | 24.25429 | 21407 ft | 402 kts | 253° |
| 2026-05-04 11:49 | 54.37443 | 24.20714 | 21956 ft | 405 kts | 253° |
| 2026-05-04 11:49 | 54.36627 | 24.16064 | 22478 ft | 408 kts | 253° |
| 2026-05-04 11:50 | 54.35802 | 24.11368 | 22983 ft | 411 kts | 253° |
| 2026-05-04 11:50 | 54.34955 | 24.06566 | 23478 ft | 414 kts | 253° |
| 2026-05-04 11:50 | 54.34117 | 24.01836 | 23946 ft | 417 kts | 254° |
| 2026-05-04 11:50 | 54.33260 | 23.97010 | 24405 ft | 420 kts | 254° |
| 2026-05-04 11:51 | 54.32399 | 23.92180 | 24845 ft | 423 kts | 254° |
| 2026-05-04 11:51 | 54.31513 | 23.87224 | 25276 ft | 425 kts | 254° |
| 2026-05-04 11:51 | 54.30645 | 23.82387 | 25681 ft | 428 kts | 254° |
| 2026-05-04 11:51 | 54.29752 | 23.77418 | 26079 ft | 431 kts | 254° |
| 2026-05-04 11:52 | 54.28856 | 23.72444 | 26460 ft | 434 kts | 254° |
| 2026-05-04 11:52 | 54.27946 | 23.67412 | 26829 ft | 436 kts | 254° |
| 2026-05-04 11:52 | 54.27046 | 23.62453 | 27181 ft | 439 kts | 255° |
| 2026-05-04 11:52 | 54.26123 | 23.57377 | 27522 ft | 441 kts | 255° |
| 2026-05-04 11:53 | 54.25192 | 23.52277 | 27850 ft | 444 kts | 255° |
| 2026-05-04 11:53 | 54.24256 | 23.47176 | 28163 ft | 446 kts | 254° |
| 2026-05-04 11:53 | 54.23208 | 23.42081 | 28462 ft | 449 kts | 251° |
| 2026-05-04 11:53 | 54.22012 | 23.37128 | 28744 ft | 452 kts | 248° |
| 2026-05-04 11:55 | 54.11388 | 23.03544 | 31189 ft | 454 kts | 244° |
| 2026-05-04 11:55 | 54.09921 | 22.98736 | 31526 ft | 452 kts | 246° |
| 2026-05-04 11:56 | 54.08600 | 22.93789 | 31866 ft | 451 kts | 250° |
| 2026-05-04 11:56 | 54.07450 | 22.88763 | 32198 ft | 449 kts | 253° |
| 2026-05-04 11:56 | 54.06467 | 22.83653 | 32521 ft | 447 kts | 256° |
| 2026-05-04 11:56 | 54.05659 | 22.78500 | 32832 ft | 446 kts | 259° |
| 2026-05-04 11:57 | 54.05006 | 22.73275 | 33131 ft | 444 kts | 261° |
| 2026-05-04 11:57 | 54.04412 | 22.68135 | 33409 ft | 444 kts | 262° |
| 2026-05-04 11:57 | 54.03806 | 22.62885 | 33679 ft | 444 kts | 262° |
| 2026-05-04 11:57 | 54.03201 | 22.57670 | 33940 ft | 444 kts | 262° |
| 2026-05-04 11:58 | 54.02594 | 22.52468 | 34184 ft | 444 kts | 262° |
| 2026-05-04 11:58 | 54.01987 | 22.47292 | 34394 ft | 445 kts | 262° |
| 2026-05-04 11:58 | 54.01366 | 22.42021 | 34590 ft | 445 kts | 262° |
| 2026-05-04 11:58 | 54.00755 | 22.36870 | 34775 ft | 446 kts | 262° |
| 2026-05-04 11:59 | 54.00129 | 22.31615 | 34959 ft | 447 kts | 261° |
| 2026-05-04 11:59 | 53.99499 | 22.26350 | 35133 ft | 448 kts | 261° |
| 2026-05-04 11:59 | 53.98878 | 22.21175 | 35299 ft | 448 kts | 261° |
| 2026-05-04 11:59 | 53.98238 | 22.15868 | 35464 ft | 449 kts | 261° |
| 2026-05-04 12:00 | 53.97608 | 22.10666 | 35618 ft | 449 kts | 261° |
| 2026-05-04 12:00 | 53.96963 | 22.05353 | 35767 ft | 450 kts | 261° |
| 2026-05-04 12:00 | 53.96321 | 22.00099 | 35903 ft | 450 kts | 261° |
| 2026-05-04 12:01 | 53.95038 | 21.89631 | 35919 ft | 451 kts | 261° |
| 2026-05-04 12:02 | 53.90435 | 21.52770 | 35922 ft | 451 kts | 261° |
| 2026-05-04 12:03 | 53.89095 | 21.42214 | 35921 ft | 451 kts | 261° |
| 2026-05-04 12:03 | 53.87751 | 21.31725 | 35921 ft | 451 kts | 260° |
| 2026-05-04 12:04 | 53.86395 | 21.21219 | 35922 ft | 451 kts | 260° |
| 2026-05-04 12:04 | 53.85020 | 21.10634 | 35914 ft | 451 kts | 260° |
| 2026-05-04 12:05 | 53.83631 | 21.00037 | 35893 ft | 450 kts | 260° |
| 2026-05-04 12:05 | 53.82247 | 20.89571 | 35880 ft | 449 kts | 260° |
| 2026-05-04 12:06 | 53.80854 | 20.79109 | 35873 ft | 448 kts | 260° |
| 2026-05-04 12:06 | 53.79450 | 20.68639 | 35870 ft | 448 kts | 260° |
| 2026-05-04 12:07 | 53.78038 | 20.58193 | 35868 ft | 448 kts | 260° |
| 2026-05-04 12:07 | 53.76624 | 20.47804 | 35868 ft | 448 kts | 260° |
| 2026-05-04 12:08 | 53.75191 | 20.37327 | 35868 ft | 448 kts | 260° |
| 2026-05-04 12:08 | 53.73747 | 20.26858 | 35869 ft | 448 kts | 259° |
| 2026-05-04 12:09 | 53.72293 | 20.16393 | 35869 ft | 448 kts | 259° |
| 2026-05-04 12:09 | 53.70840 | 20.06016 | 35869 ft | 448 kts | 259° |
| 2026-05-04 12:10 | 53.69369 | 19.95584 | 35868 ft | 448 kts | 259° |
| 2026-05-04 12:10 | 53.67894 | 19.85187 | 35868 ft | 448 kts | 259° |
| 2026-05-04 12:11 | 53.66412 | 19.74792 | 35868 ft | 448 kts | 259° |
| 2026-05-04 12:11 | 53.64931 | 19.64491 | 35868 ft | 448 kts | 259° |
| 2026-05-04 12:12 | 53.63434 | 19.54148 | 35868 ft | 448 kts | 259° |
| 2026-05-04 12:12 | 53.61932 | 19.43846 | 35868 ft | 448 kts | 259° |
| 2026-05-04 12:14 | 53.55788 | 19.02364 | 35871 ft | 440 kts | 258° |
| 2026-05-04 12:15 | 53.54253 | 18.92166 | 35870 ft | 435 kts | 257° |
| 2026-05-04 12:15 | 53.52719 | 18.82094 | 35868 ft | 434 kts | 257° |
| 2026-05-04 12:16 | 53.51392 | 18.72018 | 35869 ft | 434 kts | 260° |
| 2026-05-04 12:16 | 53.50196 | 18.61973 | 35868 ft | 434 kts | 260° |
| 2026-05-04 12:17 | 53.48991 | 18.51926 | 35868 ft | 434 kts | 260° |
| 2026-05-04 12:17 | 53.47773 | 18.41856 | 35867 ft | 434 kts | 260° |
| 2026-05-04 12:18 | 53.46544 | 18.31775 | 35856 ft | 434 kts | 259° |
| 2026-05-04 12:18 | 53.45296 | 18.21619 | 35833 ft | 434 kts | 259° |
| 2026-05-04 12:19 | 53.44049 | 18.11549 | 35818 ft | 434 kts | 259° |
| 2026-05-04 12:19 | 53.42792 | 18.01465 | 35832 ft | 435 kts | 259° |
| 2026-05-04 12:20 | 53.41531 | 17.91428 | 35870 ft | 435 kts | 259° |
| 2026-05-04 12:20 | 53.40271 | 17.81460 | 35896 ft | 435 kts | 259° |
| 2026-05-04 12:21 | 53.38993 | 17.71431 | 35910 ft | 435 kts | 259° |
| 2026-05-04 12:21 | 53.37709 | 17.61426 | 35917 ft | 434 kts | 259° |
| 2026-05-04 12:22 | 53.36414 | 17.51414 | 35920 ft | 434 kts | 259° |
| 2026-05-04 12:22 | 53.35120 | 17.41472 | 35921 ft | 434 kts | 259° |
| 2026-05-04 12:23 | 53.33814 | 17.31511 | 35922 ft | 434 kts | 259° |
| 2026-05-04 12:23 | 53.32501 | 17.21565 | 35922 ft | 434 kts | 259° |
| 2026-05-04 12:24 | 53.31166 | 17.11526 | 35925 ft | 434 kts | 259° |
| 2026-05-04 12:24 | 53.29841 | 17.01635 | 35932 ft | 435 kts | 259° |
| 2026-05-04 12:25 | 53.28500 | 16.91695 | 35940 ft | 432 kts | 259° |
| 2026-05-04 12:25 | 53.27162 | 16.81831 | 35945 ft | 429 kts | 259° |
| 2026-05-04 12:26 | 53.25827 | 16.72073 | 35947 ft | 427 kts | 259° |
| 2026-05-04 12:26 | 53.24482 | 16.62311 | 35948 ft | 426 kts | 259° |
| 2026-05-04 12:27 | 53.23121 | 16.52500 | 35948 ft | 427 kts | 259° |
| 2026-05-04 12:27 | 53.21754 | 16.42724 | 35948 ft | 427 kts | 259° |
| 2026-05-04 12:28 | 53.20377 | 16.32951 | 35949 ft | 427 kts | 258° |
| 2026-05-04 12:28 | 53.18999 | 16.23234 | 35948 ft | 427 kts | 258° |
| 2026-05-04 12:29 | 53.17607 | 16.13484 | 35948 ft | 427 kts | 258° |
| 2026-05-04 12:29 | 53.16204 | 16.03710 | 35948 ft | 427 kts | 258° |
| 2026-05-04 12:30 | 53.14803 | 15.94025 | 35948 ft | 427 kts | 258° |
| 2026-05-04 12:30 | 53.13385 | 15.84286 | 35948 ft | 427 kts | 258° |
| 2026-05-04 12:31 | 53.11979 | 15.74654 | 35947 ft | 427 kts | 258° |
| 2026-05-04 12:31 | 53.10551 | 15.64925 | 35944 ft | 426 kts | 258° |
| 2026-05-04 12:32 | 53.08400 | 15.50400 | 35934 ft | 424 kts | 259° |
| 2026-05-04 12:33 | 53.06970 | 15.40808 | 35930 ft | 424 kts | 259° |
| 2026-05-04 12:33 | 53.05524 | 15.31179 | 35928 ft | 423 kts | 258° |
| 2026-05-04 12:34 | 53.04085 | 15.21645 | 35924 ft | 422 kts | 259° |
| 2026-05-04 12:34 | 53.02624 | 15.12024 | 35923 ft | 422 kts | 259° |
| 2026-05-04 12:35 | 53.01173 | 15.02578 | 35927 ft | 416 kts | 261° |
| 2026-05-04 12:35 | 52.99729 | 14.93243 | 35928 ft | 406 kts | 262° |
| 2026-05-04 12:36 | 52.98327 | 14.84197 | 35926 ft | 394 kts | 264° |
| 2026-05-04 12:36 | 52.96947 | 14.75257 | 35925 ft | 391 kts | 264° |
| 2026-05-04 12:37 | 52.95577 | 14.66445 | 35923 ft | 389 kts | 265° |
| 2026-05-04 12:37 | 52.94201 | 14.57633 | 35924 ft | 389 kts | 265° |
| 2026-05-04 12:38 | 52.92814 | 14.48829 | 35924 ft | 389 kts | 265° |
| 2026-05-04 12:38 | 52.91423 | 14.40065 | 35924 ft | 389 kts | 265° |
| 2026-05-04 12:39 | 52.90016 | 14.31257 | 35925 ft | 389 kts | 264° |
| 2026-05-04 12:39 | 52.88723 | 14.22448 | 35927 ft | 388 kts | 266° |
| 2026-05-04 12:40 | 52.87469 | 14.13622 | 35935 ft | 387 kts | 265° |
| 2026-05-04 12:40 | 52.86200 | 14.04795 | 35942 ft | 387 kts | 265° |
| 2026-05-04 12:41 | 52.84919 | 13.95962 | 35946 ft | 388 kts | 265° |
| 2026-05-04 12:41 | 52.83638 | 13.87192 | 35947 ft | 388 kts | 265° |
| 2026-05-04 12:42 | 52.82346 | 13.78403 | 35948 ft | 387 kts | 265° |
| 2026-05-04 12:42 | 52.81049 | 13.69628 | 35947 ft | 387 kts | 265° |
| 2026-05-04 12:43 | 52.79745 | 13.60859 | 35947 ft | 387 kts | 265° |
| 2026-05-04 12:43 | 52.78434 | 13.52086 | 35947 ft | 387 kts | 265° |
| 2026-05-04 12:44 | 52.77112 | 13.43299 | 35947 ft | 387 kts | 265° |
| 2026-05-04 12:44 | 52.75796 | 13.34585 | 35948 ft | 388 kts | 265° |
| 2026-05-04 12:45 | 52.74466 | 13.25844 | 35948 ft | 388 kts | 265° |
| 2026-05-04 12:45 | 52.73131 | 13.17098 | 35950 ft | 388 kts | 265° |
| 2026-05-04 12:46 | 52.71803 | 13.08438 | 35950 ft | 383 kts | 264° |
| 2026-05-04 12:46 | 52.70483 | 12.99888 | 35950 ft | 378 kts | 263° |
| 2026-05-04 12:47 | 52.69172 | 12.91442 | 35948 ft | 374 kts | 263° |
| 2026-05-04 12:47 | 52.67865 | 12.83089 | 35948 ft | 373 kts | 263° |
| 2026-05-04 12:48 | 52.66538 | 12.74635 | 35948 ft | 373 kts | 263° |
| 2026-05-04 12:48 | 52.65211 | 12.66223 | 35948 ft | 373 kts | 263° |
| 2026-05-04 12:49 | 52.63884 | 12.57848 | 35948 ft | 373 kts | 263° |
| 2026-05-04 12:49 | 52.62544 | 12.49439 | 35948 ft | 373 kts | 263° |
| 2026-05-04 12:50 | 52.61198 | 12.41037 | 35948 ft | 373 kts | 263° |
| 2026-05-04 12:50 | 52.59850 | 12.32662 | 35955 ft | 374 kts | 262° |
| 2026-05-04 12:51 | 52.58499 | 12.24310 | 35960 ft | 374 kts | 263° |
| 2026-05-04 12:51 | 52.57133 | 12.15901 | 35968 ft | 374 kts | 262° |
| 2026-05-04 12:52 | 52.55766 | 12.07527 | 35972 ft | 375 kts | 263° |
| 2026-05-04 12:52 | 52.54400 | 11.99201 | 35975 ft | 374 kts | 263° |
| 2026-05-04 12:53 | 52.53017 | 11.90821 | 35976 ft | 374 kts | 263° |
| 2026-05-04 12:53 | 52.51630 | 11.82453 | 35976 ft | 374 kts | 263° |
| 2026-05-04 12:54 | 52.50244 | 11.74130 | 35976 ft | 374 kts | 263° |
| 2026-05-04 12:54 | 52.48849 | 11.65793 | 35976 ft | 374 kts | 262° |
| 2026-05-04 12:55 | 52.47443 | 11.57434 | 35976 ft | 374 kts | 262° |
| 2026-05-04 12:55 | 52.46031 | 11.49078 | 35976 ft | 374 kts | 262° |
| 2026-05-04 12:56 | 52.44616 | 11.40743 | 35976 ft | 374 kts | 262° |
| 2026-05-04 12:56 | 52.43192 | 11.32401 | 35978 ft | 375 kts | 262° |
| 2026-05-04 12:57 | 52.41765 | 11.24074 | 35976 ft | 375 kts | 262° |
| 2026-05-04 12:57 | 52.40318 | 11.15675 | 35974 ft | 375 kts | 262° |
| 2026-05-04 12:58 | 52.38877 | 11.07348 | 35968 ft | 375 kts | 262° |
| 2026-05-04 12:58 | 52.37422 | 10.98964 | 35961 ft | 374 kts | 261° |
| 2026-05-04 12:59 | 52.35973 | 10.90644 | 35955 ft | 372 kts | 261° |
| 2026-05-04 12:59 | 52.34528 | 10.82399 | 35952 ft | 369 kts | 259° |
| 2026-05-04 13:00 | 52.33076 | 10.74173 | 35950 ft | 368 kts | 259° |
| 2026-05-04 13:00 | 52.31620 | 10.65977 | 35950 ft | 368 kts | 259° |
| 2026-05-04 13:01 | 52.30168 | 10.57826 | 35950 ft | 368 kts | 259° |
| 2026-05-04 13:01 | 52.28712 | 10.49684 | 35950 ft | 368 kts | 259° |
| 2026-05-04 13:02 | 52.27242 | 10.41500 | 35950 ft | 368 kts | 259° |
| 2026-05-04 13:02 | 52.25782 | 10.33409 | 35952 ft | 368 kts | 259° |
| 2026-05-04 13:03 | 52.24307 | 10.25271 | 35950 ft | 368 kts | 259° |
| 2026-05-04 13:03 | 52.22819 | 10.17092 | 35949 ft | 368 kts | 259° |
| 2026-05-04 13:04 | 52.21339 | 10.08995 | 35949 ft | 368 kts | 259° |
| 2026-05-04 13:04 | 52.19836 | 10.00809 | 35949 ft | 368 kts | 259° |
| 2026-05-04 13:05 | 52.18334 | 9.92662 | 35949 ft | 368 kts | 259° |
| 2026-05-04 13:05 | 52.16833 | 9.84566 | 35949 ft | 368 kts | 259° |
| 2026-05-04 13:06 | 52.15320 | 9.76427 | 35950 ft | 368 kts | 259° |
| 2026-05-04 13:06 | 52.13800 | 9.68293 | 35950 ft | 368 kts | 259° |
| 2026-05-04 13:07 | 52.12264 | 9.60103 | 35950 ft | 368 kts | 259° |
| 2026-05-04 13:07 | 52.10728 | 9.51960 | 35950 ft | 368 kts | 259° |
| 2026-05-04 13:08 | 52.09182 | 9.43793 | 35950 ft | 368 kts | 259° |
| 2026-05-04 13:08 | 52.07637 | 9.35672 | 35950 ft | 368 kts | 259° |
| 2026-05-04 13:09 | 52.06099 | 9.27602 | 35949 ft | 368 kts | 259° |
| 2026-05-04 13:09 | 52.04843 | 9.19374 | 35949 ft | 365 kts | 263° |
| 2026-05-04 13:10 | 52.03824 | 9.11129 | 35949 ft | 365 kts | 263° |
| 2026-05-04 13:10 | 52.02799 | 9.02863 | 35950 ft | 363 kts | 263° |
| 2026-05-04 13:11 | 52.01782 | 8.94677 | 35950 ft | 361 kts | 262° |
| 2026-05-04 13:11 | 52.00776 | 8.86610 | 35950 ft | 359 kts | 262° |
| 2026-05-04 13:12 | 51.99756 | 8.78514 | 35950 ft | 358 kts | 262° |
| 2026-05-04 13:12 | 51.98645 | 8.70500 | 35950 ft | 359 kts | 259° |
| 2026-05-04 13:13 | 51.97107 | 8.62614 | 35950 ft | 362 kts | 255° |
| 2026-05-04 13:13 | 51.95230 | 8.54874 | 35950 ft | 363 kts | 254° |
| 2026-05-04 13:14 | 51.93338 | 8.47159 | 35950 ft | 363 kts | 254° |
| 2026-05-04 13:14 | 51.92392 | 8.43327 | 35803 ft | 363 kts | 254° |
| 2026-05-04 13:14 | 51.91436 | 8.39469 | 35546 ft | 361 kts | 254° |
| 2026-05-04 13:14 | 51.90484 | 8.35645 | 35292 ft | 359 kts | 254° |
| 2026-05-04 13:15 | 51.89534 | 8.31842 | 35039 ft | 357 kts | 253° |
| 2026-05-04 13:15 | 51.88598 | 8.28100 | 34787 ft | 355 kts | 253° |
| 2026-05-04 13:15 | 51.87651 | 8.24314 | 34532 ft | 355 kts | 253° |
| 2026-05-04 13:15 | 51.86715 | 8.20579 | 34279 ft | 355 kts | 253° |
| 2026-05-04 13:16 | 51.85776 | 8.16840 | 33934 ft | 356 kts | 253° |
| 2026-05-04 13:16 | 51.84827 | 8.13066 | 33388 ft | 358 kts | 253° |
| 2026-05-04 13:16 | 51.83863 | 8.09234 | 32679 ft | 359 kts | 253° |
| 2026-05-04 13:16 | 51.82918 | 8.05486 | 31918 ft | 361 kts | 252° |
| 2026-05-04 13:17 | 51.81949 | 8.01654 | 31114 ft | 363 kts | 252° |
| 2026-05-04 13:17 | 51.80978 | 7.97818 | 30287 ft | 366 kts | 252° |
| 2026-05-04 13:17 | 51.79999 | 7.93962 | 29444 ft | 369 kts | 251° |
| 2026-05-04 13:17 | 51.79005 | 7.90057 | 28584 ft | 372 kts | 251° |
| 2026-05-04 13:18 | 51.78007 | 7.86141 | 27701 ft | 375 kts | 251° |
| 2026-05-04 13:18 | 51.76997 | 7.82189 | 26915 ft | 374 kts | 251° |
| 2026-05-04 13:18 | 51.76000 | 7.78302 | 26358 ft | 369 kts | 251° |
| 2026-05-04 13:18 | 51.75004 | 7.74427 | 25808 ft | 364 kts | 250° |
| 2026-05-04 13:19 | 51.74030 | 7.70639 | 25273 ft | 360 kts | 250° |
| 2026-05-04 13:19 | 51.73061 | 7.66875 | 24743 ft | 356 kts | 250° |
| 2026-05-04 13:19 | 51.72152 | 7.63140 | 24211 ft | 352 kts | 253° |
| 2026-05-04 13:19 | 51.71446 | 7.59342 | 23678 ft | 348 kts | 257° |
| 2026-05-04 13:20 | 51.70942 | 7.55433 | 23148 ft | 345 kts | 261° |
| 2026-05-04 13:20 | 51.70654 | 7.51579 | 22654 ft | 342 kts | 265° |
| 2026-05-04 13:20 | 51.70456 | 7.47733 | 22187 ft | 338 kts | 265° |
| 2026-05-04 13:20 | 51.70266 | 7.43890 | 21724 ft | 335 kts | 265° |
| 2026-05-04 13:21 | 51.70081 | 7.40105 | 21267 ft | 332 kts | 265° |
| 2026-05-04 13:21 | 51.69898 | 7.36356 | 20819 ft | 329 kts | 265° |
| 2026-05-04 13:21 | 51.69716 | 7.32643 | 20377 ft | 326 kts | 264° |
| 2026-05-04 13:21 | 51.69534 | 7.28937 | 19937 ft | 324 kts | 264° |
| 2026-05-04 13:22 | 51.69351 | 7.25232 | 19498 ft | 322 kts | 264° |
| 2026-05-04 13:22 | 51.69170 | 7.21588 | 19068 ft | 321 kts | 264° |
| 2026-05-04 13:22 | 51.68988 | 7.17922 | 18637 ft | 320 kts | 264° |
| 2026-05-04 13:22 | 51.68807 | 7.14310 | 18212 ft | 320 kts | 264° |
| 2026-05-04 13:23 | 51.68623 | 7.10666 | 17787 ft | 320 kts | 264° |
| 2026-05-04 13:23 | 51.68441 | 7.07077 | 17371 ft | 319 kts | 264° |
| 2026-05-04 13:23 | 51.68254 | 7.03417 | 16952 ft | 319 kts | 264° |
| 2026-05-04 13:23 | 51.68066 | 6.99762 | 16536 ft | 319 kts | 264° |
| 2026-05-04 13:24 | 51.67880 | 6.96153 | 16130 ft | 319 kts | 264° |
| 2026-05-04 13:24 | 51.67689 | 6.92487 | 15720 ft | 319 kts | 264° |
| 2026-05-04 13:24 | 51.67497 | 6.88818 | 15312 ft | 319 kts | 264° |
| 2026-05-04 13:25 | 51.67112 | 6.81549 | 14509 ft | 318 kts | 264° |
| 2026-05-04 13:25 | 51.66921 | 6.77961 | 14113 ft | 318 kts | 264° |
| 2026-05-04 13:25 | 51.66727 | 6.74357 | 13666 ft | 317 kts | 264° |
| 2026-05-04 13:25 | 51.66533 | 6.70742 | 13180 ft | 318 kts | 264° |
| 2026-05-04 13:26 | 51.66333 | 6.67062 | 12670 ft | 319 kts | 264° |
| 2026-05-04 13:26 | 51.66135 | 6.63433 | 12161 ft | 320 kts | 264° |
| 2026-05-04 13:26 | 51.65933 | 6.59755 | 11650 ft | 321 kts | 264° |
| 2026-05-04 13:26 | 51.65729 | 6.56056 | 11156 ft | 320 kts | 264° |
| 2026-05-04 13:27 | 51.65527 | 6.52393 | 10813 ft | 314 kts | 264° |
| 2026-05-04 13:27 | 51.65330 | 6.48868 | 10640 ft | 301 kts | 264° |
| 2026-05-04 13:27 | 51.65141 | 6.45469 | 10488 ft | 288 kts | 264° |
| 2026-05-04 13:27 | 51.64955 | 6.42182 | 10334 ft | 276 kts | 264° |
| 2026-05-04 13:28 | 51.64779 | 6.39068 | 10193 ft | 265 kts | 264° |
| 2026-05-04 13:28 | 51.64611 | 6.36091 | 10065 ft | 257 kts | 264° |
| 2026-05-04 13:28 | 51.64442 | 6.33134 | 9848 ft | 256 kts | 263° |
| 2026-05-04 13:28 | 51.64272 | 6.30209 | 9485 ft | 257 kts | 263° |
| 2026-05-04 13:29 | 51.64101 | 6.27259 | 9142 ft | 256 kts | 263° |
| 2026-05-04 13:29 | 51.63932 | 6.24318 | 8801 ft | 256 kts | 263° |
| 2026-05-04 13:29 | 51.63762 | 6.21373 | 8454 ft | 255 kts | 263° |
| 2026-05-04 13:29 | 51.63587 | 6.18414 | 8112 ft | 255 kts | 263° |
| 2026-05-04 13:30 | 51.63415 | 6.15504 | 7777 ft | 254 kts | 263° |
| 2026-05-04 13:30 | 51.63248 | 6.12654 | 7446 ft | 253 kts | 263° |
| 2026-05-04 13:30 | 51.63082 | 6.09845 | 7116 ft | 252 kts | 263° |
| 2026-05-04 13:30 | 51.62916 | 6.07076 | 6768 ft | 252 kts | 263° |
| 2026-05-04 13:31 | 51.62746 | 6.04285 | 6431 ft | 252 kts | 263° |
| 2026-05-04 13:31 | 51.62575 | 6.01457 | 6097 ft | 251 kts | 263° |
| 2026-05-04 13:31 | 51.62401 | 5.98602 | 5764 ft | 250 kts | 263° |
| 2026-05-04 13:31 | 51.62230 | 5.95801 | 5434 ft | 249 kts | 263° |
| 2026-05-04 13:32 | 51.62058 | 5.93010 | 5110 ft | 249 kts | 263° |
| 2026-05-04 13:32 | 51.61880 | 5.90173 | 4782 ft | 247 kts | 263° |
| 2026-05-04 13:32 | 51.61702 | 5.87325 | 4456 ft | 246 kts | 264° |
| 2026-05-04 13:32 | 51.61527 | 5.84542 | 4134 ft | 245 kts | 265° |
| 2026-05-04 13:33 | 51.61357 | 5.81731 | 3807 ft | 244 kts | 264° |
| 2026-05-04 13:33 | 51.61183 | 5.78932 | 3479 ft | 244 kts | 263° |
| 2026-05-04 13:33 | 51.61006 | 5.76173 | 3247 ft | 238 kts | 263° |
| 2026-05-04 13:33 | 51.60833 | 5.73528 | 3227 ft | 223 kts | 264° |
| 2026-05-04 13:34 | 51.60675 | 5.71024 | 3195 ft | 210 kts | 265° |
| 2026-05-04 13:34 | 51.60524 | 5.68644 | 3164 ft | 210 kts | 263° |
| 2026-05-04 13:34 | 51.60372 | 5.66196 | 3122 ft | 211 kts | 264° |
| 2026-05-04 13:34 | 51.60211 | 5.63774 | 3021 ft | 210 kts | 263° |
| 2026-05-04 13:35 | 51.60058 | 5.61342 | 2883 ft | 210 kts | 263° |
| 2026-05-04 13:35 | 51.59750 | 5.56672 | 2345 ft | 207 kts | 265° |
| 2026-05-04 13:35 | 51.59444 | 5.54344 | 2043 ft | 207 kts | 241° |
| 2026-05-04 13:36 | 51.58508 | 5.52601 | 2014 ft | 195 kts | 220° |
| 2026-05-04 13:36 | 51.57375 | 5.51235 | 2011 ft | 195 kts | 216° |
| 2026-05-04 13:36 | 51.56229 | 5.49981 | 2010 ft | 195 kts | 215° |
| 2026-05-04 13:36 | 51.55067 | 5.48714 | 2018 ft | 193 kts | 216° |
| 2026-05-04 13:37 | 51.53989 | 5.47518 | 1996 ft | 179 kts | 216° |
| 2026-05-04 13:37 | 51.52970 | 5.46376 | 1758 ft | 165 kts | 216° |
| 2026-05-04 13:37 | 51.52025 | 5.45314 | 1526 ft | 152 kts | 216° |
| 2026-05-04 13:37 | 51.51450 | 5.44669 | 1380 ft | 142 kts | 217° |
| 2026-05-04 13:38 | 51.50399 | 5.43489 | 1119 ft | 133 kts | 217° |
| 2026-05-04 13:38 | 51.49628 | 5.42624 | 963 ft | 132 kts | 217° |
| 2026-05-04 13:38 | 51.48846 | 5.41730 | 793 ft | 132 kts | 217° |
| 2026-05-04 13:38 | 51.48064 | 5.40864 | 615 ft | 132 kts | 216° |
| 2026-05-04 13:39 | 51.47297 | 5.40009 | 424 ft | 132 kts | 217° |
| 2026-05-04 13:39 | 51.46521 | 5.39146 | 229 ft | 131 kts | 216° |
| 2026-05-04 13:39 | 51.45742 | 5.38278 | 73 ft | 128 kts | 218° |
| 2026-05-04 13:39 | 51.45101 | 5.37548 | 65 ft | 88 kts | 217° |
| 2026-05-04 13:40 | 51.44735 | 5.37138 | 68 ft | 37 kts | 214° |
| 2026-05-04 13:40 | 51.44620 | 5.37010 | 68 ft | 14 kts | 216° |
| 2026-05-04 13:40 | 51.44512 | 5.36880 | 68 ft | 23 kts | 216° |
| 2026-05-04 13:40 | 51.44374 | 5.36734 | 68 ft | 22 kts | 214° |
| 2026-05-04 13:41 | 51.44262 | 5.36608 | 69 ft | 18 kts | 216° |
| 2026-05-04 13:41 | 51.44158 | 5.36490 | 71 ft | 16 kts | 216° |
| 2026-05-04 13:41 | 51.44129 | 5.36365 | 71 ft | 13 kts | 308° |
| 2026-05-04 13:42 | 51.44237 | 5.36292 | 71 ft | 7 kts | 65° |
| 2026-05-04 13:42 | 51.44281 | 5.36358 | 71 ft | 9 kts | 31° |
| 2026-05-04 13:42 | 51.44352 | 5.36429 | 71 ft | 13 kts | 33° |
| 2026-05-04 13:42 | 51.44437 | 5.36521 | 71 ft | 14 kts | 37° |
| 2026-05-04 13:43 | 51.44527 | 5.36627 | 68 ft | 16 kts | 36° |
| 2026-05-04 13:43 | 51.44620 | 5.36735 | 70 ft | 15 kts | 36° |
| 2026-05-04 13:43 | 51.44707 | 5.36834 | 71 ft | 15 kts | 35° |
| 2026-05-04 13:43 | 51.44801 | 5.36937 | 70 ft | 15 kts | 34° |
| 2026-05-04 13:44 | 51.44895 | 5.37042 | 70 ft | 16 kts | 36° |
| 2026-05-04 13:44 | 51.44991 | 5.37149 | 71 ft | 15 kts | 35° |
| 2026-05-04 13:44 | 51.45088 | 5.37257 | 69 ft | 17 kts | 36° |
| 2026-05-04 13:44 | 51.45193 | 5.37374 | 67 ft | 18 kts | 35° |
| 2026-05-04 13:45 | 51.45299 | 5.37495 | 67 ft | 18 kts | 36° |
| 2026-05-04 13:45 | 51.45408 | 5.37617 | 65 ft | 16 kts | 35° |
| 2026-05-04 13:45 | 51.45451 | 5.37669 | 64 ft | 5 kts | 50° |
| 2026-05-04 13:45 | 51.45443 | 5.37733 | 64 ft | 6 kts | 122° |
| 2026-05-04 13:46 | 51.45414 | 5.37804 | 64 ft | 8 kts | 125° |
| 2026-05-04 13:46 | 51.45378 | 5.37884 | 64 ft | 9 kts | 126° |
| 2026-05-04 13:46 | 51.45337 | 5.37976 | 64 ft | 10 kts | 126° |
| 2026-05-04 13:46 | 51.45292 | 5.38077 | 64 ft | 11 kts | 126° |
| 2026-05-04 13:47 | 51.45244 | 5.38186 | 64 ft | 12 kts | 126° |
| 2026-05-04 13:47 | 51.45195 | 5.38306 | 64 ft | 12 kts | 125° |
| 2026-05-04 13:47 | 51.45185 | 5.38328 | 64 ft | 0 kts | 126° |
| 2026-05-04 13:48 | 51.45182 | 5.38334 | 64 ft | 1 kts | 126° |
| 2026-05-04 13:48 | 51.45178 | 5.38344 | 65 ft | 0 kts | 126° |